Time;durP1;ratioP1;P1;durP2;ratioP2;P2;SDS_P1;SDS_P2;PMS_P1;PMS_P2;Temp;Humidity;BMP_temperature;BMP_pressure;BME280_temperature;BME280_humidity;BME280_pressure;Samples;Min_cycle;Max_cycle;Signal;HPM_P1;HPM_P2
2023/01/08 00:00:26;;;;;;;5.88;3.25;;;;;;;9.16;100.00;100254.25;5054406;28;20032;-80
2023/01/08 00:02:51;;;;;;;4.85;3.00;;;;;;;9.16;100.00;100258.66;5055743;28;20041;-80
2023/01/08 00:05:17;;;;;;;4.63;2.90;;;;;;;9.14;100.00;100256.16;5034517;28;20400;-80
2023/01/08 00:07:42;;;;;;;6.07;3.60;;;;;;;9.11;100.00;100256.41;5048325;28;20021;-80
2023/01/08 00:10:08;;;;;;;5.15;2.95;;;;;;;9.10;100.00;100270.47;5052551;28;20270;-80
2023/01/08 00:12:33;;;;;;;4.53;3.03;;;;;;;9.11;100.00;100272.13;5065918;28;20030;-79
2023/01/08 00:14:59;;;;;;;7.00;3.47;;;;;;;9.14;100.00;100273.69;5063772;28;20499;-80
2023/01/08 00:17:24;;;;;;;5.25;3.38;;;;;;;9.14;100.00;100271.06;5051005;28;20036;-80
2023/01/08 00:19:50;;;;;;;6.05;3.40;;;;;;;9.14;100.00;100271.06;5061332;28;20033;-80
2023/01/08 00:22:15;;;;;;;6.38;2.90;;;;;;;9.16;100.00;100266.53;5048761;28;20416;-80
2023/01/08 00:24:40;;;;;;;6.63;3.50;;;;;;;9.17;100.00;100266.41;5050033;28;20036;-80
2023/01/08 00:27:06;;;;;;;6.15;3.20;;;;;;;9.17;100.00;100257.69;5049572;28;20041;-81
2023/01/08 00:29:32;;;;;;;6.25;3.50;;;;;;;9.17;100.00;100255.91;5049103;28;20043;-80
2023/01/08 00:31:57;;;;;;;5.40;3.30;;;;;;;9.17;100.00;100248.03;5028680;28;20044;-80
2023/01/08 00:34:23;;;;;;;6.43;3.58;;;;;;;9.19;100.00;100247.91;5029850;28;20045;-80
2023/01/08 00:36:51;;;;;;;7.32;4.03;;;;;;;9.19;100.00;100242.66;5042444;28;20052;-80
2023/01/08 00:39:17;;;;;;;8.05;3.50;;;;;;;9.20;100.00;100234.69;5054346;28;20056;-81
2023/01/08 00:41:44;;;;;;;5.78;3.28;;;;;;;9.20;100.00;100226.81;5051635;28;20041;-83
2023/01/08 00:44:09;;;;;;;6.45;3.40;;;;;;;9.22;100.00;100227.53;5066078;28;20544;-80
2023/01/08 00:46:34;;;;;;;7.20;3.20;;;;;;;9.22;100.00;100234.59;5068697;28;20124;-80
2023/01/08 00:49:00;;;;;;;6.47;3.35;;;;;;;9.22;100.00;100217.06;5052095;28;20478;-81
2023/01/08 00:51:25;;;;;;;8.60;3.88;;;;;;;9.21;100.00;100210.13;5048769;28;20185;-80
2023/01/08 00:53:54;;;;;;;5.97;3.60;;;;;;;9.21;100.00;100211.91;5028729;28;20555;-80
2023/01/08 00:56:19;;;;;;;6.00;3.42;;;;;;;9.22;100.00;100211.81;5069404;28;20060;-80
2023/01/08 00:58:45;;;;;;;4.88;3.35;;;;;;;9.23;100.00;100213.47;5061018;28;20429;-80
2023/01/08 01:01:14;;;;;;;8.48;3.47;;;;;;;9.23;100.00;100213.47;5050090;28;20478;-80
2023/01/08 01:03:40;;;;;;;7.10;3.33;;;;;;;9.23;100.00;100208.22;5048421;28;20047;-80
2023/01/08 01:06:06;;;;;;;8.88;3.63;;;;;;;9.24;100.00;100211.69;5053015;28;20393;-80
2023/01/08 01:08:33;;;;;;;6.85;3.80;;;;;;;9.23;100.00;100202.97;5063465;28;20037;-80
2023/01/08 01:11:21;;;;;;;7.50;3.40;;;;;;;9.22;100.00;100198.69;5059880;28;20039;-80
2023/01/08 01:13:50;;;;;;;7.65;3.60;;;;;;;9.22;100.00;100201.31;5036145;28;20041;-80
2023/01/08 01:16:16;;;;;;;8.25;3.35;;;;;;;9.22;100.00;100190.81;5051644;28;20037;-80
2023/01/08 01:18:42;;;;;;;8.82;3.88;;;;;;;9.21;100.00;100186.50;5058582;28;20050;-80
2023/01/08 01:21:10;;;;;;;5.72;3.60;;;;;;;9.22;100.00;100182.94;5031116;28;20037;-80
2023/01/08 01:23:35;;;;;;;7.32;3.90;;;;;;;9.22;100.00;100198.69;5061544;28;20036;-80
2023/01/08 01:26:01;;;;;;;6.57;3.75;;;;;;;9.23;100.00;100192.47;5034188;28;20037;-80
2023/01/08 01:28:27;;;;;;;6.55;3.90;;;;;;;9.25;100.00;100182.69;5053200;28;20032;-80
2023/01/08 01:30:54;;;;;;;7.55;3.70;;;;;;;9.25;100.00;100184.47;5049008;28;20044;-80
2023/01/08 01:33:22;;;;;;;7.63;3.92;;;;;;;9.26;100.00;100186.97;5068516;28;20033;-80
2023/01/08 01:35:47;;;;;;;6.28;3.72;;;;;;;9.26;100.00;100192.22;5065742;28;20094;-80
2023/01/08 01:38:13;;;;;;;7.78;3.97;;;;;;;9.28;100.00;100182.44;5056323;28;20447;-80
2023/01/08 01:40:44;;;;;;;6.30;3.50;;;;;;;9.29;100.00;100186.72;5048567;28;20041;-80
2023/01/08 01:43:13;;;;;;;7.35;3.40;;;;;;;9.30;100.00;100192.81;5047982;28;20060;-84
2023/01/08 01:45:39;;;;;;;5.80;3.40;;;;;;;9.30;100.00;100198.91;5046897;28;20405;-81
2023/01/08 01:48:17;;;;;;;7.03;3.40;;;;;;;9.32;100.00;100211.91;5051445;28;20021;-79
2023/01/08 01:50:49;;;;;;;5.70;3.50;;;;;;;9.27;100.00;100214.91;5051652;28;20079;-80
2023/01/08 01:53:36;;;;;;;8.80;3.63;;;;;;;9.25;100.00;100216.81;5015979;28;20406;-81
2023/01/08 01:56:03;;;;;;;7.07;3.30;;;;;;;9.22;100.00;100221.47;5052542;28;20040;-79
2023/01/08 01:58:31;;;;;;;6.68;3.15;;;;;;;9.17;100.00;100213.09;5050093;28;20029;-79
2023/01/08 02:01:06;;;;;;;9.27;2.60;;;;;;;9.09;100.00;100216.31;5051127;28;20128;-78
2023/01/08 02:03:39;;;;;;;6.45;2.35;;;;;;;8.97;100.00;100228.59;5049107;28;20055;-80
2023/01/08 02:06:07;;;;;;;6.20;2.40;;;;;;;8.92;100.00;100232.53;5072613;28;20036;-81
2023/01/08 02:08:55;;;;;;;4.57;1.80;;;;;;;8.81;100.00;100222.03;5060185;28;20037;-81
2023/01/08 02:12:17;;;;;;;7.28;1.60;;;;;;;8.70;100.00;100200.06;5053398;28;20047;-81
2023/01/08 02:15:20;;;;;;;4.55;1.45;;;;;;;8.53;100.00;100200.53;5032328;28;20115;-82
2023/01/08 02:18:12;;;;;;;3.78;1.20;;;;;;;8.39;100.00;100185.81;5054162;28;20039;-81
2023/01/08 02:21:07;;;;;;;5.93;1.40;;;;;;;8.24;100.00;100168.59;5051245;28;20048;-82
2023/01/08 02:23:46;;;;;;;6.68;1.55;;;;;;;8.16;100.00;100177.06;5038237;28;20497;-82
2023/01/08 02:26:19;;;;;;;4.93;1.30;;;;;;;8.11;100.00;100181.81;5051241;28;20057;-82
2023/01/08 02:28:47;;;;;;;;;;;;;;;8.14;100.00;100186.81;5068465;28;20041;-82
2023/01/08 02:31:16;;;;;;;3.58;1.52;;;;;;;7.97;100.00;100184.59;5035386;28;19909;-82
2023/01/08 02:33:44;;;;;;;6.07;1.52;;;;;;;7.97;100.00;100184.59;5056606;28;20040;-82
2023/01/08 02:36:15;;;;;;;8.98;1.50;;;;;;;7.91;100.00;100185.03;5034727;28;20043;-82
2023/01/08 02:39:12;;;;;;;4.60;1.30;;;;;;;7.89;100.00;100186.94;5066093;28;20045;-82
2023/01/08 02:41:46;;;;;;;4.05;1.33;;;;;;;7.86;100.00;100176.69;5019954;28;20053;-84
2023/01/08 02:44:19;;;;;;;4.80;1.35;;;;;;;7.81;100.00;100186.66;5050824;28;20033;-81
2023/01/08 02:46:53;;;;;;;5.22;1.30;;;;;;;7.81;100.00;100184.06;5051734;28;20116;-82
2023/01/08 02:49:40;;;;;;;6.35;1.25;;;;;;;7.76;100.00;100180.94;5052631;28;20059;-81
2023/01/08 02:52:11;;;;;;;7.88;1.40;;;;;;;7.68;100.00;100178.88;5044627;28;20037;-82
2023/01/08 02:54:39;;;;;;;4.85;1.10;;;;;;;7.63;100.00;100164.47;5054468;28;20037;-81
2023/01/08 02:57:12;;;;;;;9.77;1.40;;;;;;;7.62;100.00;100168.03;5055864;28;20495;-82
2023/01/08 02:59:39;;;;;;;6.97;1.65;;;;;;;7.58;100.00;100162.16;5036300;28;20059;-81
2023/01/08 03:02:06;;;;;;;4.95;1.30;;;;;;;7.54;100.00;100158.91;5063916;28;20029;-82
2023/01/08 03:04:38;;;;;;;5.50;1.33;;;;;;;7.52;100.00;100152.97;5054183;28;20028;-82
2023/01/08 03:07:04;;;;;;;;;;;;;;;7.61;100.00;100161.13;5058960;28;20049;-82
2023/01/08 03:09:29;;;;;;;5.75;1.40;;;;;;;7.51;100.00;100159.16;5065077;28;20254;-82
2023/01/08 03:12:10;;;;;;;5.28;1.10;;;;;;;7.47;100.00;100160.31;5035602;28;20037;-82
2023/01/08 03:15:08;;;;;;;7.65;1.42;;;;;;;7.48;100.00;100161.97;5014463;28;20072;-82
2023/01/08 03:17:42;;;;;;;6.50;1.77;;;;;;;7.44;100.00;100163.16;5063747;28;20039;-81
2023/01/08 03:20:20;;;;;;;8.90;1.45;;;;;;;7.42;100.00;100157.19;5072349;28;20047;-82
2023/01/08 03:22:49;;;;;;;7.53;1.60;;;;;;;7.40;100.00;100153.84;5068475;28;20041;-81
2023/01/08 03:25:21;;;;;;;9.32;1.65;;;;;;;7.41;100.00;100149.47;5054578;28;20435;-81
2023/01/08 03:27:51;;;;;;;5.85;1.42;;;;;;;7.39;100.00;100151.34;5060320;28;20473;-81
2023/01/08 03:30:21;;;;;;;8.00;1.40;;;;;;;7.33;100.00;100147.41;5055451;28;20555;-82
2023/01/08 03:32:49;;;;;;;5.22;1.35;;;;;;;7.32;100.00;100140.50;5069760;28;20040;-81
2023/01/08 03:35:19;;;;;;;7.68;1.65;;;;;;;7.33;100.00;100154.41;5070872;28;20043;-82
2023/01/08 03:38:04;;;;;;;7.07;1.88;;;;;;;7.32;100.00;100145.72;5069484;28;20043;-81
2023/01/08 03:40:45;;;;;;;4.55;1.35;;;;;;;7.33;100.00;100141.31;5045205;28;20520;-82
2023/01/08 03:43:10;;;;;;;9.43;1.90;;;;;;;7.29;100.00;100140.72;5053791;28;20135;-81
2023/01/08 03:45:37;;;;;;;6.28;1.60;;;;;;;7.28;100.00;100154.75;5065991;28;20537;-84
2023/01/08 03:48:07;;;;;;;6.38;1.70;;;;;;;7.28;100.00;100144.28;5068475;28;20203;-82
2023/01/08 03:50:34;;;;;;;9.68;1.58;;;;;;;7.29;100.00;100140.72;5049703;28;20485;-82
2023/01/08 03:52:59;;;;;;;5.88;1.88;;;;;;;7.33;100.00;100130.84;5031253;28;20037;-81
2023/01/08 03:55:25;;;;;;;5.32;1.70;;;;;;;7.32;100.00;100134.41;5031310;28;20033;-81
2023/01/08 03:57:50;;;;;;;6.47;1.42;;;;;;;7.33;100.00;100138.72;5048416;28;20045;-82
2023/01/08 04:00:22;;;;;;;6.55;1.27;;;;;;;7.33;100.00;100128.25;5050655;28;20041;-81
2023/01/08 04:02:47;;;;;;;8.45;1.63;;;;;;;7.34;100.00;100133.38;5041206;28;20064;-82
2023/01/08 04:05:12;;;;;;;6.40;1.80;;;;;;;7.37;100.00;100129.69;5049947;28;20020;-82
2023/01/08 04:07:38;;;;;;;8.35;1.67;;;;;;;7.37;100.00;100132.31;5050284;28;20560;-81
2023/01/08 04:10:04;;;;;;;6.18;1.70;;;;;;;7.37;100.00;100127.91;5049855;28;20033;-81
2023/01/08 04:12:30;;;;;;;6.97;1.63;;;;;;;7.37;100.00;100114.00;5049514;28;20037;-84
2023/01/08 04:14:55;;;;;;;6.95;1.83;;;;;;;7.33;100.00;100100.28;5047792;28;20060;-81
2023/01/08 04:17:21;;;;;;;7.55;1.77;;;;;;;7.32;100.00;100109.09;5066607;28;20491;-81
2023/01/08 04:19:46;;;;;;;5.65;1.63;;;;;;;7.30;100.00;100110.97;5060206;28;20072;-81
2023/01/08 04:22:12;;;;;;;3.78;1.52;;;;;;;7.31;100.00;100119.66;5050814;28;20124;-81
2023/01/08 04:24:37;;;;;;;8.20;2.00;;;;;;;7.30;100.00;100121.44;5057134;28;20044;-81
2023/01/08 04:27:03;;;;;;;6.82;2.03;;;;;;;7.31;100.00;100123.13;5070487;28;20059;-81
2023/01/08 04:29:28;;;;;;;5.68;2.00;;;;;;;7.33;100.00;100110.75;5060065;28;20064;-81
2023/01/08 04:31:56;;;;;;;6.10;2.20;;;;;;;7.33;100.00;100110.75;5050395;28;20064;-81
2023/01/08 04:34:21;;;;;;;6.65;2.00;;;;;;;7.34;100.00;100104.59;5057073;28;20058;-81
2023/01/08 04:36:47;;;;;;;6.60;2.15;;;;;;;7.37;100.00;100111.38;5070818;28;20028;-81
2023/01/08 04:39:25;;;;;;;5.75;2.20;;;;;;;7.38;100.00;100110.41;5070586;28;20085;-81
2023/01/08 04:41:50;;;;;;;6.07;2.22;;;;;;;7.38;100.00;100108.63;5060747;28;20049;-84
2023/01/08 04:44:15;;;;;;;7.32;2.28;;;;;;;7.37;100.00;100101.75;5051646;28;20094;-81
2023/01/08 04:46:40;;;;;;;6.07;1.80;;;;;;;7.37;100.00;100100.91;5061176;28;20553;-83
2023/01/08 04:49:06;;;;;;;6.70;1.83;;;;;;;7.34;100.00;100099.34;5062742;28;20037;-84
2023/01/08 04:51:34;;;;;;;8.40;2.03;;;;;;;7.33;100.00;100108.16;5050036;28;20037;-84
2023/01/08 04:53:59;;;;;;;6.53;1.83;;;;;;;7.34;100.00;100101.13;5049452;28;20137;-84
2023/01/08 04:56:25;;;;;;;5.03;1.85;;;;;;;7.34;100.00;100112.44;5051767;28;20044;-80
2023/01/08 04:58:51;;;;;;;4.82;1.75;;;;;;;7.32;100.00;100116.94;5049370;28;20037;-80
2023/01/08 05:01:23;;;;;;;3.60;1.80;;;;;;;7.34;100.00;100117.66;5048739;28;20405;-81
2023/01/08 05:03:59;;;;;;;4.97;1.55;;;;;;;7.37;100.00;100114.81;5052020;28;20060;-80
2023/01/08 05:06:26;;;;;;;6.80;2.00;;;;;;;7.34;100.00;100111.59;5063159;28;20037;-83
2023/01/08 05:08:52;;;;;;;5.30;1.65;;;;;;;7.32;100.00;100119.56;5019932;28;20028;-81
2023/01/08 05:11:21;;;;;;;4.07;1.83;;;;;;;7.30;100.00;100103.13;5069569;28;20028;-81
2023/01/08 05:13:48;;;;;;;3.92;1.52;;;;;;;7.31;100.00;100112.66;5067116;28;20115;-80
2023/01/08 05:16:14;;;;;;;4.25;1.45;;;;;;;7.32;100.00;100114.31;5068008;28;20101;-80
2023/01/08 05:18:39;;;;;;;4.45;1.50;;;;;;;7.32;100.00;100111.72;5069438;28;20025;-81
2023/01/08 05:21:05;;;;;;;3.30;1.30;;;;;;;7.31;100.00;100101.34;5058279;28;20040;-80
2023/01/08 05:23:33;;;;;;;3.83;1.30;;;;;;;7.31;100.00;100104.81;5054784;28;20158;-80
2023/01/08 05:25:59;;;;;;;6.50;1.60;;;;;;;7.31;100.00;100102.19;5055926;28;20072;-81
2023/01/08 05:28:26;;;;;;;5.28;1.25;;;;;;;7.32;100.00;100097.78;5072206;28;20033;-81
2023/01/08 05:30:55;;;;;;;5.20;1.42;;;;;;;7.33;100.00;100104.69;5073769;28;20510;-81
2023/01/08 05:33:21;;;;;;;5.15;1.40;;;;;;;7.31;100.00;100086.50;5075555;28;20033;-80
2023/01/08 05:35:46;;;;;;;3.65;1.30;;;;;;;7.32;100.00;100076.84;5071684;28;20388;-81
2023/01/08 05:38:12;;;;;;;6.15;1.60;;;;;;;7.33;100.00;100079.34;5038186;28;20034;-81
2023/01/08 05:40:40;;;;;;;6.00;1.45;;;;;;;7.32;100.00;100088.16;5072593;28;20061;-80
2023/01/08 05:43:06;;;;;;;3.53;1.30;;;;;;;7.30;100.00;100090.06;5055296;28;20060;-80
2023/01/08 05:45:32;;;;;;;4.57;1.40;;;;;;;7.29;100.00;100093.63;5055618;28;20045;-80
2023/01/08 05:48:07;;;;;;;6.45;1.30;;;;;;;7.25;100.00;100092.16;5056840;28;20029;-80
2023/01/08 05:50:35;;;;;;;5.53;1.55;;;;;;;7.19;100.00;100090.81;5075552;28;20039;-80
2023/01/08 05:53:05;;;;;;;5.78;1.42;;;;;;;7.16;100.00;100090.19;5056163;28;20025;-80
2023/01/08 05:56:06;;;;;;;4.38;1.50;;;;;;;7.14;100.00;100090.31;5053203;28;20033;-81
2023/01/08 05:58:32;;;;;;;3.85;1.30;;;;;;;7.04;100.00;100089.28;5057913;28;20048;-80
2023/01/08 06:01:07;;;;;;;6.35;1.63;;;;;;;7.02;100.00;100095.59;5045620;28;20044;-80
2023/01/08 06:03:41;;;;;;;6.25;1.30;;;;;;;6.97;100.00;100100.31;5055679;28;20045;-80
2023/01/08 06:06:09;;;;;;;6.35;1.55;;;;;;;6.90;100.00;100103.38;5067305;28;20032;-80
2023/01/08 06:08:34;;;;;;;7.28;1.85;;;;;;;6.89;100.00;100106.94;5075947;28;20029;-80
2023/01/08 06:11:10;;;;;;;8.40;1.73;;;;;;;6.81;100.00;100122.31;5068928;28;20059;-81
2023/01/08 06:13:36;;;;;;;5.07;1.50;;;;;;;6.77;100.00;100118.22;5052234;28;20036;-84
2023/01/08 06:16:05;;;;;;;5.20;1.50;;;;;;;6.73;100.00;100119.38;5057837;28;20040;-81
2023/01/08 06:18:30;;;;;;;7.35;1.80;;;;;;;6.69;100.00;100114.47;5064742;28;20037;-80
2023/01/08 06:21:05;;;;;;;6.70;1.75;;;;;;;6.65;100.00;100124.31;5056603;28;20039;-81
2023/01/08 06:23:34;;;;;;;5.55;1.42;;;;;;;6.62;100.00;100118.47;5057758;28;20040;-81
2023/01/08 06:26:00;;;;;;;8.18;2.45;;;;;;;6.59;100.00;100119.50;5069531;28;20036;-81
2023/01/08 06:28:30;;;;;;;6.45;1.83;;;;;;;6.55;100.00;100131.13;5053810;28;20107;-81
2023/01/08 06:31:00;;;;;;;7.70;1.90;;;;;;;6.52;100.00;100126.09;5054000;28;20041;-80
2023/01/08 06:33:31;;;;;;;8.88;1.95;;;;;;;6.51;100.00;100137.50;5062898;28;20028;-80
2023/01/08 06:36:04;;;;;;;10.33;1.90;;;;;;;6.50;100.00;100130.59;5054118;28;20063;-80
2023/01/08 06:38:31;;;;;;;8.15;1.70;;;;;;;6.43;100.00;100132.81;5051472;28;20291;-80
2023/01/08 06:41:04;;;;;;;10.63;2.25;;;;;;;6.41;100.00;100133.84;5053090;28;20037;-80
2023/01/08 06:43:29;;;;;;;5.43;1.48;;;;;;;6.38;100.00;100139.25;5069607;28;20076;-80
2023/01/08 06:45:57;;;;;;;6.35;1.77;;;;;;;6.31;100.00;100143.22;5041625;28;20072;-80
2023/01/08 06:48:26;;;;;;;7.35;2.22;;;;;;;6.29;100.00;100149.41;5047295;28;20371;-81
2023/01/08 06:50:55;;;;;;;6.50;1.77;;;;;;;6.27;100.00;100145.22;5063297;28;20067;-80
2023/01/08 06:53:20;;;;;;;6.60;1.55;;;;;;;6.20;100.00;100144.78;5049350;28;20036;-81
2023/01/08 06:55:46;;;;;;;6.75;1.92;;;;;;;6.18;100.00;100149.28;5050106;28;20313;-81
2023/01/08 06:58:11;;;;;;;7.43;1.95;;;;;;;6.17;100.00;100152.84;5052369;28;20389;-81
2023/01/08 07:00:57;;;;;;;10.05;2.45;;;;;;;6.19;100.00;100145.72;5064065;28;20558;-81
2023/01/08 07:03:25;;;;;;;7.57;2.13;;;;;;;6.14;100.00;100150.44;5047981;28;20048;-81
2023/01/08 07:05:50;;;;;;;8.38;2.45;;;;;;;6.15;100.00;100146.88;5051224;28;20029;-80
2023/01/08 07:08:17;;;;;;;9.98;2.30;;;;;;;6.15;100.00;100143.44;5056735;28;20032;-81
2023/01/08 07:10:45;;;;;;;8.70;2.28;;;;;;;6.09;100.00;100139.47;5053521;28;20037;-79
2023/01/08 07:13:11;;;;;;;14.65;3.42;;;;;;;6.10;100.00;100138.53;5071189;28;20028;-79
2023/01/08 07:15:37;;;;;;;9.43;2.80;;;;;;;6.12;100.00;100134.03;5069090;28;20044;-79
2023/01/08 07:18:07;;;;;;;10.38;3.00;;;;;;;6.11;100.00;100126.31;5062401;28;20041;-79
2023/01/08 07:20:33;;;;;;;9.32;2.58;;;;;;;6.11;100.00;100134.97;5051075;28;20037;-80
2023/01/08 07:23:06;;;;;;;10.10;2.70;;;;;;;6.11;100.00;100134.97;5051699;28;20045;-80
2023/01/08 07:25:32;;;;;;;;;;;;;;;6.19;100.00;100142.28;5052094;28;20033;-82
2023/01/08 07:27:59;;;;;;;11.52;2.80;;;;;;;6.10;100.00;100132.47;5051265;28;20000;-80
2023/01/08 07:30:25;;;;;;;15.43;3.10;;;;;;;6.07;100.00;100138.72;5050295;28;20037;-80
2023/01/08 07:33:04;;;;;;;12.88;2.75;;;;;;;6.07;100.00;100140.50;5051125;28;20505;-80
2023/01/08 07:35:34;;;;;;;11.82;2.75;;;;;;;6.08;100.00;100140.41;5049712;28;20156;-79
2023/01/08 07:38:00;;;;;;;11.30;2.70;;;;;;;6.06;100.00;100142.28;5055284;28;20060;-80
2023/01/08 07:40:25;;;;;;;12.85;2.65;;;;;;;6.03;100.00;100137.25;5071383;28;20048;-79
2023/01/08 07:43:01;;;;;;;10.82;2.53;;;;;;;6.02;100.00;100146.03;5053107;28;20044;-79
2023/01/08 07:45:27;;;;;;;11.10;2.63;;;;;;;5.97;100.00;100135.03;5040698;28;20555;-79
2023/01/08 07:47:53;;;;;;;12.63;2.45;;;;;;;5.95;100.00;100134.28;5070546;28;20036;-79
2023/01/08 07:50:23;;;;;;;10.00;2.33;;;;;;;5.91;100.00;100133.66;5060128;28;20033;-80
2023/01/08 07:52:51;;;;;;;11.18;2.60;;;;;;;5.90;100.00;100131.16;5048955;28;20041;-80
2023/01/08 07:55:16;;;;;;;9.52;2.38;;;;;;;5.89;100.00;100129.47;5050495;28;20064;-80
2023/01/08 07:57:42;;;;;;;14.13;2.53;;;;;;;5.88;100.00;100127.78;5048836;28;20059;-80
2023/01/08 08:00:08;;;;;;;12.10;2.22;;;;;;;5.90;100.00;100133.78;5068781;28;20850;-80
2023/01/08 08:02:36;;;;;;;11.27;3.08;;;;;;;5.90;100.00;100125.94;5045270;28;20099;-80
2023/01/08 08:05:02;;;;;;;11.00;3.28;;;;;;;5.91;100.00;100127.59;5043079;28;20032;-79
2023/01/08 08:07:30;;;;;;;12.73;2.20;;;;;;;5.92;100.00;100111.84;5033414;28;20048;-79
2023/01/08 08:10:01;;;;;;;11.13;2.78;;;;;;;5.97;100.00;100104.53;5047926;28;20064;-79
2023/01/08 08:12:27;;;;;;;14.23;3.13;;;;;;;6.02;100.00;100100.81;5049315;28;20043;-79
2023/01/08 08:14:52;;;;;;;9.30;2.17;;;;;;;6.08;100.00;100101.22;5046978;28;20040;-80
2023/01/08 08:17:21;;;;;;;10.77;2.80;;;;;;;6.16;100.00;100092.88;5050146;28;20607;-80
2023/01/08 08:19:46;;;;;;;9.90;2.03;;;;;;;6.20;100.00;100089.94;5045959;28;20115;-80
2023/01/08 08:22:13;;;;;;;13.55;3.10;;;;;;;6.25;100.00;100085.25;5035885;28;20718;-80
2023/01/08 08:24:39;;;;;;;12.20;2.47;;;;;;;6.33;100.00;100078.66;5049262;28;20485;-80
2023/01/08 08:27:05;;;;;;;11.45;2.72;;;;;;;6.38;100.00;100079.16;5054572;28;20037;-80
2023/01/08 08:29:30;;;;;;;11.70;2.50;;;;;;;6.41;100.00;100082.44;5049984;28;20040;-80
2023/01/08 08:31:55;;;;;;;12.45;2.85;;;;;;;6.46;100.00;100095.19;5051520;28;20033;-81
2023/01/08 08:34:23;;;;;;;10.85;2.58;;;;;;;6.46;100.00;100097.78;5031500;28;20382;-80
2023/01/08 08:36:49;;;;;;;13.20;2.78;;;;;;;6.46;100.00;100089.94;5057019;28;20047;-80
2023/01/08 08:39:15;;;;;;;9.52;2.35;;;;;;;6.47;100.00;100091.63;5069333;28;20039;-80
2023/01/08 08:41:43;;;;;;;8.70;2.42;;;;;;;6.47;100.00;100092.47;5053393;28;20441;-80
2023/01/08 08:44:08;;;;;;;12.65;2.20;;;;;;;6.49;100.00;100089.75;5049118;28;20039;-80
2023/01/08 08:46:34;;;;;;;13.20;3.30;;;;;;;6.52;100.00;100092.13;5047498;28;20744;-80
2023/01/08 08:48:59;;;;;;;9.90;2.20;;;;;;;6.50;100.00;100088.78;5066179;28;20037;-80
2023/01/08 08:51:25;;;;;;;9.27;2.47;;;;;;;6.52;100.00;100089.53;5048408;28;20030;-80
2023/01/08 08:53:50;;;;;;;12.90;2.83;;;;;;;6.52;100.00;100086.91;5025832;28;20106;-80
2023/01/08 08:56:22;;;;;;;8.60;1.90;;;;;;;6.51;100.00;100080.00;5047680;28;20037;-80
2023/01/08 08:58:51;;;;;;;10.15;2.55;;;;;;;6.48;100.00;100080.22;5068086;28;20158;-80
2023/01/08 09:01:17;;;;;;;9.70;2.55;;;;;;;6.47;100.00;100073.31;5051664;28;20106;-80
2023/01/08 09:03:45;;;;;;;12.27;2.28;;;;;;;6.46;100.00;100076.88;5069610;28;20033;-81
2023/01/08 09:06:14;;;;;;;14.25;3.22;;;;;;;6.42;100.00;100081.50;5032401;28;20044;-80
2023/01/08 09:08:40;;;;;;;14.52;2.88;;;;;;;6.38;100.00;100068.72;5057515;28;20043;-80
2023/01/08 09:11:05;;;;;;;8.45;2.28;;;;;;;6.33;100.00;100069.03;5048438;28;20033;-80
2023/01/08 09:13:30;;;;;;;11.30;2.55;;;;;;;6.32;100.00;100063.91;5049459;28;20107;-80
2023/01/08 09:15:59;;;;;;;10.07;2.65;;;;;;;6.27;100.00;100072.91;5048641;28;20028;-80
2023/01/08 09:18:25;;;;;;;12.23;3.00;;;;;;;6.27;100.00;100072.06;5048915;28;20076;-80
2023/01/08 09:20:50;;;;;;;12.70;2.85;;;;;;;6.21;100.00;100062.88;5031400;28;20064;-80
2023/01/08 09:23:16;;;;;;;13.15;2.83;;;;;;;6.19;100.00;100075.22;5030229;28;20497;-81
2023/01/08 09:25:41;;;;;;;10.30;2.58;;;;;;;6.23;100.00;100068.00;5046783;28;20033;-81
2023/01/08 09:28:11;;;;;;;10.43;2.72;;;;;;;6.18;100.00;100068.31;5049798;28;20055;-81
2023/01/08 09:30:37;;;;;;;13.35;2.97;;;;;;;6.21;100.00;100062.06;5044703;28;20040;-81
2023/01/08 09:33:05;;;;;;;10.70;2.50;;;;;;;6.21;100.00;100057.66;5036078;28;20045;-81
2023/01/08 09:35:32;;;;;;;11.82;2.83;;;;;;;6.24;100.00;100060.06;5028722;28;20109;-81
2023/01/08 09:37:58;;;;;;;12.05;2.30;;;;;;;6.22;100.00;100048.88;5049230;28;20037;-81
2023/01/08 09:40:38;;;;;;;10.95;2.50;;;;;;;6.25;100.00;100053.91;5037188;28;20045;-81
2023/01/08 09:43:04;;;;;;;10.77;2.33;;;;;;;6.27;100.00;100038.94;5028440;28;20048;-81
2023/01/08 09:45:36;;;;;;;11.88;2.33;;;;;;;6.30;100.00;100032.69;5029951;28;20025;-82
2023/01/08 09:48:06;;;;;;;13.13;3.08;;;;;;;6.33;100.00;100039.47;5028777;28;20517;-81
2023/01/08 09:50:33;;;;;;;11.18;2.72;;;;;;;6.34;100.00;100035.91;5011624;28;20486;-81
2023/01/08 09:52:59;;;;;;;13.02;2.60;;;;;;;6.38;100.00;100042.59;5011893;28;20076;-81
2023/01/08 09:55:28;;;;;;;9.90;2.50;;;;;;;6.39;100.00;100036.41;5011479;28;20055;-81
2023/01/08 09:57:53;;;;;;;9.20;2.70;;;;;;;6.41;100.00;100029.34;5009678;28;20091;-81
2023/01/08 10:00:28;;;;;;;12.07;2.65;;;;;;;6.45;100.00;100033.41;5028906;28;20440;-80
2023/01/08 10:02:55;;;;;;;11.80;3.05;;;;;;;6.47;100.00;100037.59;5011405;28;20033;-79
2023/01/08 10:05:25;;;;;;;15.10;3.08;;;;;;;6.50;100.00;100026.06;5035382;28;20108;-81
2023/01/08 10:07:50;;;;;;;10.20;2.45;;;;;;;6.54;100.00;100027.53;5013409;28;20479;-79
2023/01/08 10:10:26;;;;;;;11.65;2.80;;;;;;;6.56;100.00;100028.25;5013563;28;20036;-78
2023/01/08 10:12:56;;;;;;;9.82;3.08;;;;;;;6.63;100.00;100023.44;5038528;28;20068;-80
2023/01/08 10:15:22;;;;;;;7.82;2.42;;;;;;;6.69;100.00;100021.22;5031211;28;20037;-80
2023/01/08 10:17:50;;;;;;;9.35;2.47;;;;;;;6.71;100.00;100021.94;5032811;28;20037;-80
2023/01/08 10:20:22;;;;;;;7.45;2.03;;;;;;;6.76;100.00;100019.81;5024201;28;20029;-80
2023/01/08 10:22:53;;;;;;;11.43;2.10;;;;;;;6.81;100.00;100015.13;5032321;28;20045;-80
2023/01/08 10:25:24;;;;;;;7.45;2.00;;;;;;;6.87;100.00;100014.69;5031684;28;20121;-83
2023/01/08 10:27:52;;;;;;;8.13;2.13;;;;;;;6.92;100.00;100009.13;5032248;28;20032;-83
2023/01/08 10:30:28;;;;;;;8.38;2.40;;;;;;;6.96;100.00;100018.41;5013095;28;20044;-80
2023/01/08 10:33:04;;;;;;;8.70;2.30;;;;;;;7.02;100.00;100017.97;5029433;28;20052;-80
2023/01/08 10:35:36;;;;;;;7.70;1.85;;;;;;;7.08;100.00;100011.44;5031040;28;20091;-79
2023/01/08 10:38:02;;;;;;;7.00;1.63;;;;;;;7.14;100.00;100005.75;5013979;28;20044;-79
2023/01/08 10:40:36;;;;;;;7.25;1.88;;;;;;;7.19;100.00;100004.47;5017926;28;20052;-79
2023/01/08 10:43:14;;;;;;;7.05;1.85;;;;;;;7.29;100.00;99982.88;5057666;28;20504;-79
2023/01/08 10:45:42;;;;;;;4.57;1.40;;;;;;;7.37;100.00;99996.22;5041130;28;20036;-79
2023/01/08 10:48:17;;;;;;;3.65;1.38;;;;;;;7.48;100.00;99983.16;5050232;28;20464;-79
2023/01/08 10:50:43;;;;;;;6.90;1.70;;;;;;;7.55;100.00;99985.22;5054619;28;20033;-80
2023/01/08 10:53:24;;;;;;;5.35;1.60;;;;;;;7.63;100.00;99982.03;5018169;28;20167;-79
2023/01/08 10:56:04;;;;;;;3.03;1.10;;;;;;;7.69;100.00;99975.50;5050225;28;20029;-79
2023/01/08 10:58:42;;;;;;;3.45;1.15;;;;;;;7.81;99.88;99969.31;5049606;28;21527;-80
2023/01/08 11:01:12;;;;;;;2.35;0.90;;;;;;;7.83;98.66;99963.00;5033535;28;20405;-80
2023/01/08 11:03:41;;;;;;;3.65;1.20;;;;;;;7.93;98.60;99963.13;5031550;28;20144;-80
2023/01/08 11:06:12;;;;;;;2.63;0.85;;;;;;;7.99;98.11;99961.81;5048104;28;20040;-80
2023/01/08 11:08:50;;;;;;;2.60;0.88;;;;;;;8.05;97.35;99961.38;5049300;28;20079;-80
2023/01/08 11:11:15;;;;;;;2.60;0.93;;;;;;;8.11;98.18;99951.25;5051875;28;20039;-79
2023/01/08 11:13:54;;;;;;;2.97;0.90;;;;;;;8.19;97.53;99948.03;5050881;28;20037;-79
2023/01/08 11:16:30;;;;;;;3.35;1.15;;;;;;;8.24;96.80;99948.50;5051393;28;20033;-79
2023/01/08 11:18:55;;;;;;;2.95;0.73;;;;;;;8.29;96.15;99941.09;5051471;28;20025;-80
2023/01/08 11:21:26;;;;;;;1.00;0.50;;;;;;;8.33;95.03;99944.31;5048590;28;20111;-79
2023/01/08 11:24:16;;;;;;;1.10;0.60;;;;;;;8.39;94.49;99939.44;5041364;28;20159;-79
2023/01/08 11:26:49;;;;;;;4.72;0.88;;;;;;;8.42;93.69;99933.16;5031542;28;20034;-79
2023/01/08 11:29:21;;;;;;;1.33;0.70;;;;;;;8.46;93.81;99935.41;5051027;28;20029;-79
2023/01/08 11:32:08;;;;;;;4.10;0.93;;;;;;;8.52;93.89;99928.81;5052114;28;20028;-79
2023/01/08 11:34:52;;;;;;;1.80;0.88;;;;;;;8.57;94.13;99921.41;5048535;28;20500;-80